createdAt,value
2022-08-17T15:10:21.978Z,6.50
2022-08-17T15:13:09.186Z,4.00
2022-08-17T15:24:14.514Z,4.33
2022-08-17T17:11:45.614Z,5.67
2022-08-17T17:14:57.286Z,6.00
2022-08-17T17:17:33.569Z,4.00
2022-08-17T17:25:48.881Z,4.00
2022-08-17T21:22:35.376Z,19.67
2022-08-17T21:25:31.317Z,19.33
2022-08-17T21:28:01.800Z,21.00
2022-08-17T21:30:29.228Z,18.67
2022-08-17T21:33:25.523Z,18.67
2022-08-17T21:36:16.618Z,18.33
2022-08-17T21:39:04.196Z,19.33
2022-08-17T21:41:49.795Z,19.33
2022-08-17T21:44:31.376Z,19.00
2022-08-17T21:47:13.364Z,19.33
2022-08-17T21:49:40.635Z,21.00
2022-08-17T21:52:07.794Z,19.00
2022-08-17T21:54:42.934Z,16.67
2022-08-17T21:57:24.049Z,18.67
2022-08-17T21:59:58.827Z,19.33
2022-08-17T22:02:55.930Z,18.67
2022-08-17T22:05:37.166Z,18.00
2022-08-17T22:08:24.058Z,17.33
2022-08-17T22:10:51.736Z,18.33
2022-08-17T22:13:19.763Z,20.00
2022-08-17T22:16:15.188Z,17.33
2022-08-17T22:18:43.073Z,17.67
2022-08-17T22:21:10.414Z,20.00
2022-08-17T22:24:01.262Z,15.67
2022-08-17T22:27:01.539Z,17.00
2022-08-17T22:29:57.653Z,17.00
2022-08-17T22:32:35.634Z,19.33
2022-08-17T22:35:28.853Z,18.33
2022-08-17T22:37:59.265Z,17.33
2022-08-17T22:40:37.774Z,22.67
2022-08-17T22:43:05.195Z,17.33
2022-08-17T22:45:34.274Z,18.00
2022-08-17T22:48:04.799Z,18.00
2022-08-17T22:50:34.279Z,18.67
2022-08-17T22:53:36.448Z,20.00
2022-08-17T22:56:22.496Z,18.00
2022-08-17T22:59:15.435Z,20.00
2022-08-17T23:01:43.223Z,16.67
2022-08-17T23:04:12.717Z,16.00
2022-08-17T23:06:43.671Z,16.33
2022-08-17T23:09:10.947Z,18.00
2022-08-17T23:11:50.825Z,14.67
2022-08-17T23:14:21.270Z,16.67
2022-08-17T23:16:52.660Z,18.00
2022-08-17T23:19:20.950Z,17.33
2022-08-17T23:21:49.014Z,18.33
2022-08-17T23:24:20.602Z,19.67
2022-08-17T23:26:48.363Z,19.67
2022-08-17T23:29:19.412Z,16.67
2022-08-17T23:31:46.944Z,16.00
2022-08-17T23:34:14.407Z,15.67
2022-08-17T23:36:42.931Z,20.00
2022-08-17T23:39:10.367Z,18.00
2022-08-17T23:41:40.195Z,15.33
2022-08-17T23:44:07.558Z,20.00
2022-08-17T23:46:35.457Z,17.67
2022-08-17T23:49:03.701Z,19.00
2022-08-17T23:51:39.337Z,15.33
2022-08-17T23:54:22.386Z,17.00
2022-08-17T23:56:49.845Z,17.00
2022-08-17T23:59:23.180Z,18.00
